sensor_id;sensor_type;location;lat;lon;timestamp;P1;durP1;ratioP1;P2;durP2;ratioP2
53207;SDS011;39093;52.788;6.940;2023-01-19T00:00:00;18.40;;;13.30;;
53207;SDS011;39093;52.788;6.940;2023-01-19T00:02:29;17.55;;;12.88;;
53207;SDS011;39093;52.788;6.940;2023-01-19T00:04:56;21.17;;;13.05;;
53207;SDS011;39093;52.788;6.940;2023-01-19T00:07:23;18.40;;;11.63;;
53207;SDS011;39093;52.788;6.940;2023-01-19T00:09:51;18.23;;;11.43;;
53207;SDS011;39093;52.788;6.940;2023-01-19T00:12:18;15.50;;;11.55;;
53207;SDS011;39093;52.788;6.940;2023-01-19T00:14:45;12.50;;;9.07;;
53207;SDS011;39093;52.788;6.940;2023-01-19T00:17:12;13.13;;;10.30;;
53207;SDS011;39093;52.788;6.940;2023-01-19T00:19:40;11.27;;;8.82;;
53207;SDS011;39093;52.788;6.940;2023-01-19T00:22:07;12.70;;;9.45;;
53207;SDS011;39093;52.788;6.940;2023-01-19T00:24:34;9.60;;;8.00;;
53207;SDS011;39093;52.788;6.940;2023-01-19T00:27:01;10.70;;;7.35;;
53207;SDS011;39093;52.788;6.940;2023-01-19T00:29:29;8.25;;;7.35;;
53207;SDS011;39093;52.788;6.940;2023-01-19T00:31:59;11.35;;;8.13;;
53207;SDS011;39093;52.788;6.940;2023-01-19T00:34:26;11.93;;;8.80;;
53207;SDS011;39093;52.788;6.940;2023-01-19T00:37:02;9.43;;;7.97;;
53207;SDS011;39093;52.788;6.940;2023-01-19T00:39:29;10.43;;;7.93;;
53207;SDS011;39093;52.788;6.940;2023-01-19T00:41:56;8.75;;;7.28;;
53207;SDS011;39093;52.788;6.940;2023-01-19T00:44:42;9.70;;;8.20;;
53207;SDS011;39093;52.788;6.940;2023-01-19T00:47:09;10.23;;;7.10;;
53207;SDS011;39093;52.788;6.940;2023-01-19T00:49:35;8.63;;;7.60;;
53207;SDS011;39093;52.788;6.940;2023-01-19T00:52:02;6.65;;;5.88;;
53207;SDS011;39093;52.788;6.940;2023-01-19T00:54:29;7.57;;;6.57;;
53207;SDS011;39093;52.788;6.940;2023-01-19T00:56:56;6.75;;;5.88;;
53207;SDS011;39093;52.788;6.940;2023-01-19T00:59:23;6.05;;;5.47;;
53207;SDS011;39093;52.788;6.940;2023-01-19T01:01:51;6.53;;;5.93;;
53207;SDS011;39093;52.788;6.940;2023-01-19T01:04:18;8.18;;;5.72;;
53207;SDS011;39093;52.788;6.940;2023-01-19T01:06:45;6.53;;;5.93;;
53207;SDS011;39093;52.788;6.940;2023-01-19T01:09:12;9.68;;;6.43;;
53207;SDS011;39093;52.788;6.940;2023-01-19T01:11:40;8.35;;;7.03;;
53207;SDS011;39093;52.788;6.940;2023-01-19T01:14:08;8.40;;;6.68;;
53207;SDS011;39093;52.788;6.940;2023-01-19T01:16:36;9.95;;;8.27;;
53207;SDS011;39093;52.788;6.940;2023-01-19T01:19:03;8.63;;;7.55;;
53207;SDS011;39093;52.788;6.940;2023-01-19T01:21:30;9.75;;;8.25;;
53207;SDS011;39093;52.788;6.940;2023-01-19T01:24:00;10.85;;;9.25;;
53207;SDS011;39093;52.788;6.940;2023-01-19T01:26:27;11.55;;;10.35;;
53207;SDS011;39093;52.788;6.940;2023-01-19T01:28:54;12.57;;;10.88;;
53207;SDS011;39093;52.788;6.940;2023-01-19T01:31:21;12.32;;;10.38;;
53207;SDS011;39093;52.788;6.940;2023-01-19T01:33:48;14.30;;;12.25;;
53207;SDS011;39093;52.788;6.940;2023-01-19T01:36:15;13.82;;;11.70;;
53207;SDS011;39093;52.788;6.940;2023-01-19T01:38:44;14.25;;;12.25;;
53207;SDS011;39093;52.788;6.940;2023-01-19T01:41:11;13.27;;;11.43;;
53207;SDS011;39093;52.788;6.940;2023-01-19T01:43:42;16.88;;;14.07;;
53207;SDS011;39093;52.788;6.940;2023-01-19T01:48:53;16.75;;;14.95;;
53207;SDS011;39093;52.788;6.940;2023-01-19T01:54:02;19.02;;;15.80;;
53207;SDS011;39093;52.788;6.940;2023-01-19T01:56:34;16.20;;;14.50;;
53207;SDS011;39093;52.788;6.940;2023-01-19T01:59:08;18.35;;;16.35;;
53207;SDS011;39093;52.788;6.940;2023-01-19T02:01:43;17.67;;;14.90;;
53207;SDS011;39093;52.788;6.940;2023-01-19T02:04:28;18.50;;;14.57;;
53207;SDS011;39093;52.788;6.940;2023-01-19T02:06:57;17.70;;;15.80;;
53207;SDS011;39093;52.788;6.940;2023-01-19T02:09:42;16.20;;;13.50;;
53207;SDS011;39093;52.788;6.940;2023-01-19T02:12:28;17.45;;;15.15;;
53207;SDS011;39093;52.788;6.940;2023-01-19T02:15:17;17.13;;;14.85;;
53207;SDS011;39093;52.788;6.940;2023-01-19T02:17:45;20.35;;;16.42;;
53207;SDS011;39093;52.788;6.940;2023-01-19T02:20:12;18.13;;;16.23;;
53207;SDS011;39093;52.788;6.940;2023-01-19T02:22:47;17.20;;;15.40;;
53207;SDS011;39093;52.788;6.940;2023-01-19T02:25:16;19.55;;;15.10;;
53207;SDS011;39093;52.788;6.940;2023-01-19T02:27:45;21.70;;;16.75;;
53207;SDS011;39093;52.788;6.940;2023-01-19T02:30:12;19.02;;;16.02;;
53207;SDS011;39093;52.788;6.940;2023-01-19T02:32:42;19.35;;;15.07;;
53207;SDS011;39093;52.788;6.940;2023-01-19T02:35:09;18.10;;;15.57;;
53207;SDS011;39093;52.788;6.940;2023-01-19T02:37:38;22.35;;;17.67;;
53207;SDS011;39093;52.788;6.940;2023-01-19T02:40:10;20.70;;;16.10;;
53207;SDS011;39093;52.788;6.940;2023-01-19T02:42:43;18.33;;;16.05;;
53207;SDS011;39093;52.788;6.940;2023-01-19T02:45:16;15.23;;;13.38;;
53207;SDS011;39093;52.788;6.940;2023-01-19T02:47:46;19.30;;;15.48;;
53207;SDS011;39093;52.788;6.940;2023-01-19T02:50:34;14.25;;;12.27;;
53207;SDS011;39093;52.788;6.940;2023-01-19T02:53:15;18.30;;;15.90;;
53207;SDS011;39093;52.788;6.940;2023-01-19T02:56:05;25.63;;;17.57;;
53207;SDS011;39093;52.788;6.940;2023-01-19T03:13:02;23.20;;;18.80;;
53207;SDS011;39093;52.788;6.940;2023-01-19T03:15:34;23.90;;;21.25;;
53207;SDS011;39093;52.788;6.940;2023-01-19T03:18:05;22.48;;;17.90;;
53207;SDS011;39093;52.788;6.940;2023-01-19T03:20:35;23.83;;;19.92;;
53207;SDS011;39093;52.788;6.940;2023-01-19T03:23:04;27.85;;;21.30;;
53207;SDS011;39093;52.788;6.940;2023-01-19T03:25:36;18.92;;;15.65;;
53207;SDS011;39093;52.788;6.940;2023-01-19T03:28:06;23.10;;;18.60;;
53207;SDS011;39093;52.788;6.940;2023-01-19T03:30:41;24.55;;;20.23;;
53207;SDS011;39093;52.788;6.940;2023-01-19T03:33:13;25.80;;;20.50;;
53207;SDS011;39093;52.788;6.940;2023-01-19T03:35:54;28.73;;;20.73;;
53207;SDS011;39093;52.788;6.940;2023-01-19T03:38:30;26.95;;;20.48;;
53207;SDS011;39093;52.788;6.940;2023-01-19T03:41:01;24.67;;;20.80;;
53207;SDS011;39093;52.788;6.940;2023-01-19T03:43:32;25.85;;;20.33;;
53207;SDS011;39093;52.788;6.940;2023-01-19T03:46:02;24.95;;;21.42;;
53207;SDS011;39093;52.788;6.940;2023-01-19T03:48:31;24.75;;;19.98;;
53207;SDS011;39093;52.788;6.940;2023-01-19T03:51:05;25.48;;;20.30;;
53207;SDS011;39093;52.788;6.940;2023-01-19T03:53:34;27.70;;;20.33;;
53207;SDS011;39093;52.788;6.940;2023-01-19T03:56:01;23.75;;;20.67;;
53207;SDS011;39093;52.788;6.940;2023-01-19T03:58:29;27.50;;;21.10;;
53207;SDS011;39093;52.788;6.940;2023-01-19T04:00:55;20.92;;;16.50;;
53207;SDS011;39093;52.788;6.940;2023-01-19T04:03:22;27.15;;;19.08;;
53207;SDS011;39093;52.788;6.940;2023-01-19T04:05:49;21.98;;;18.65;;
53207;SDS011;39093;52.788;6.940;2023-01-19T04:08:17;27.58;;;19.58;;
53207;SDS011;39093;52.788;6.940;2023-01-19T04:10:44;24.50;;;18.92;;
53207;SDS011;39093;52.788;6.940;2023-01-19T04:13:11;25.75;;;18.17;;
53207;SDS011;39093;52.788;6.940;2023-01-19T04:15:38;20.60;;;17.33;;
53207;SDS011;39093;52.788;6.940;2023-01-19T04:18:05;21.90;;;15.85;;
53207;SDS011;39093;52.788;6.940;2023-01-19T04:20:32;18.90;;;15.23;;
53207;SDS011;39093;52.788;6.940;2023-01-19T04:22:59;17.40;;;15.00;;
53207;SDS011;39093;52.788;6.940;2023-01-19T04:25:27;19.02;;;16.65;;
53207;SDS011;39093;52.788;6.940;2023-01-19T04:27:54;20.35;;;15.60;;
53207;SDS011;39093;52.788;6.940;2023-01-19T04:30:23;23.02;;;16.40;;
53207;SDS011;39093;52.788;6.940;2023-01-19T04:32:51;19.38;;;16.30;;
53207;SDS011;39093;52.788;6.940;2023-01-19T04:35:18;14.98;;;11.02;;
53207;SDS011;39093;52.788;6.940;2023-01-19T04:37:47;15.13;;;11.88;;
53207;SDS011;39093;52.788;6.940;2023-01-19T04:40:14;17.30;;;13.70;;
53207;SDS011;39093;52.788;6.940;2023-01-19T04:42:44;15.52;;;12.73;;
53207;SDS011;39093;52.788;6.940;2023-01-19T04:45:12;18.10;;;14.30;;
53207;SDS011;39093;52.788;6.940;2023-01-19T04:47:39;18.35;;;13.55;;
53207;SDS011;39093;52.788;6.940;2023-01-19T04:50:08;14.30;;;12.77;;
53207;SDS011;39093;52.788;6.940;2023-01-19T04:52:36;16.83;;;12.27;;
53207;SDS011;39093;52.788;6.940;2023-01-19T04:55:04;13.70;;;11.40;;
53207;SDS011;39093;52.788;6.940;2023-01-19T04:57:31;15.18;;;12.63;;
53207;SDS011;39093;52.788;6.940;2023-01-19T04:59:58;14.43;;;11.40;;
53207;SDS011;39093;52.788;6.940;2023-01-19T05:02:25;14.48;;;10.55;;
53207;SDS011;39093;52.788;6.940;2023-01-19T05:04:52;14.40;;;10.10;;
53207;SDS011;39093;52.788;6.940;2023-01-19T05:07:19;13.48;;;10.90;;
53207;SDS011;39093;52.788;6.940;2023-01-19T05:09:46;13.45;;;10.88;;
53207;SDS011;39093;52.788;6.940;2023-01-19T05:12:13;14.27;;;11.02;;
53207;SDS011;39093;52.788;6.940;2023-01-19T05:14:40;15.80;;;12.13;;
53207;SDS011;39093;52.788;6.940;2023-01-19T05:17:08;14.15;;;11.73;;
53207;SDS011;39093;52.788;6.940;2023-01-19T05:19:35;15.63;;;11.02;;
53207;SDS011;39093;52.788;6.940;2023-01-19T05:22:03;13.02;;;10.18;;
53207;SDS011;39093;52.788;6.940;2023-01-19T05:24:30;17.23;;;12.45;;
53207;SDS011;39093;52.788;6.940;2023-01-19T05:26:58;16.67;;;11.57;;
53207;SDS011;39093;52.788;6.940;2023-01-19T05:29:25;14.95;;;11.85;;
53207;SDS011;39093;52.788;6.940;2023-01-19T05:31:51;17.58;;;12.18;;
53207;SDS011;39093;52.788;6.940;2023-01-19T05:34:18;17.38;;;12.02;;
53207;SDS011;39093;52.788;6.940;2023-01-19T05:36:45;22.70;;;13.13;;
53207;SDS011;39093;52.788;6.940;2023-01-19T05:39:12;18.20;;;12.63;;
53207;SDS011;39093;52.788;6.940;2023-01-19T05:41:39;18.60;;;13.30;;
53207;SDS011;39093;52.788;6.940;2023-01-19T05:44:08;20.08;;;14.07;;
53207;SDS011;39093;52.788;6.940;2023-01-19T05:46:35;20.52;;;14.45;;
53207;SDS011;39093;52.788;6.940;2023-01-19T05:49:03;21.30;;;14.60;;
53207;SDS011;39093;52.788;6.940;2023-01-19T05:51:30;24.08;;;15.02;;
53207;SDS011;39093;52.788;6.940;2023-01-19T05:54:00;21.85;;;15.48;;
53207;SDS011;39093;52.788;6.940;2023-01-19T05:56:27;21.13;;;13.88;;
53207;SDS011;39093;52.788;6.940;2023-01-19T05:58:54;19.63;;;14.23;;
53207;SDS011;39093;52.788;6.940;2023-01-19T06:01:21;20.85;;;14.38;;
53207;SDS011;39093;52.788;6.940;2023-01-19T06:03:48;21.92;;;13.27;;
53207;SDS011;39093;52.788;6.940;2023-01-19T06:06:15;26.10;;;15.52;;
53207;SDS011;39093;52.788;6.940;2023-01-19T06:08:43;18.88;;;14.15;;
53207;SDS011;39093;52.788;6.940;2023-01-19T06:11:10;25.25;;;14.27;;
53207;SDS011;39093;52.788;6.940;2023-01-19T06:13:37;27.33;;;14.75;;
53207;SDS011;39093;52.788;6.940;2023-01-19T06:16:07;19.27;;;12.80;;
53207;SDS011;39093;52.788;6.940;2023-01-19T06:18:34;24.40;;;14.20;;
53207;SDS011;39093;52.788;6.940;2023-01-19T06:21:05;28.00;;;14.80;;
53207;SDS011;39093;52.788;6.940;2023-01-19T06:23:34;26.67;;;14.50;;
53207;SDS011;39093;52.788;6.940;2023-01-19T06:26:02;27.30;;;15.38;;
53207;SDS011;39093;52.788;6.940;2023-01-19T06:28:29;25.45;;;12.90;;
53207;SDS011;39093;52.788;6.940;2023-01-19T06:30:56;23.02;;;11.98;;
53207;SDS011;39093;52.788;6.940;2023-01-19T06:33:24;20.70;;;12.23;;
53207;SDS011;39093;52.788;6.940;2023-01-19T06:35:51;21.88;;;12.23;;
53207;SDS011;39093;52.788;6.940;2023-01-19T06:38:18;28.48;;;12.48;;
53207;SDS011;39093;52.788;6.940;2023-01-19T06:40:50;23.98;;;11.63;;
53207;SDS011;39093;52.788;6.940;2023-01-19T06:43:19;30.98;;;11.15;;
53207;SDS011;39093;52.788;6.940;2023-01-19T06:45:46;27.30;;;11.32;;
53207;SDS011;39093;52.788;6.940;2023-01-19T06:48:14;20.20;;;11.20;;
53207;SDS011;39093;52.788;6.940;2023-01-19T06:50:43;22.08;;;8.98;;
53207;SDS011;39093;52.788;6.940;2023-01-19T06:53:11;20.48;;;8.25;;
53207;SDS011;39093;52.788;6.940;2023-01-19T06:55:38;13.50;;;7.78;;
53207;SDS011;39093;52.788;6.940;2023-01-19T06:58:05;14.50;;;6.68;;
53207;SDS011;39093;52.788;6.940;2023-01-19T07:00:32;14.75;;;5.70;;
53207;SDS011;39093;52.788;6.940;2023-01-19T07:02:59;13.18;;;5.35;;
53207;SDS011;39093;52.788;6.940;2023-01-19T07:05:26;14.20;;;5.65;;
53207;SDS011;39093;52.788;6.940;2023-01-19T07:07:54;8.95;;;4.95;;
53207;SDS011;39093;52.788;6.940;2023-01-19T07:10:22;12.00;;;4.28;;
53207;SDS011;39093;52.788;6.940;2023-01-19T07:12:50;10.63;;;4.00;;
53207;SDS011;39093;52.788;6.940;2023-01-19T07:15:17;30.85;;;4.53;;
53207;SDS011;39093;52.788;6.940;2023-01-19T07:17:47;16.05;;;3.65;;
53207;SDS011;39093;52.788;6.940;2023-01-19T07:20:15;12.57;;;3.58;;
53207;SDS011;39093;52.788;6.940;2023-01-19T07:22:42;22.55;;;3.83;;
53207;SDS011;39093;52.788;6.940;2023-01-19T07:25:12;7.93;;;2.70;;
53207;SDS011;39093;52.788;6.940;2023-01-19T07:27:39;5.60;;;2.75;;
53207;SDS011;39093;52.788;6.940;2023-01-19T07:30:06;14.57;;;3.30;;
53207;SDS011;39093;52.788;6.940;2023-01-19T07:32:34;7.35;;;2.40;;
53207;SDS011;39093;52.788;6.940;2023-01-19T07:35:01;8.15;;;2.17;;
53207;SDS011;39093;52.788;6.940;2023-01-19T07:37:28;15.60;;;2.20;;
53207;SDS011;39093;52.788;6.940;2023-01-19T07:39:55;14.95;;;2.25;;
53207;SDS011;39093;52.788;6.940;2023-01-19T07:42:22;11.75;;;1.75;;
53207;SDS011;39093;52.788;6.940;2023-01-19T07:44:49;14.55;;;2.53;;
53207;SDS011;39093;52.788;6.940;2023-01-19T07:47:16;21.00;;;2.45;;
53207;SDS011;39093;52.788;6.940;2023-01-19T07:49:42;19.80;;;2.40;;
53207;SDS011;39093;52.788;6.940;2023-01-19T07:52:09;9.40;;;1.90;;
53207;SDS011;39093;52.788;6.940;2023-01-19T07:54:36;16.85;;;2.20;;
53207;SDS011;39093;52.788;6.940;2023-01-19T07:57:03;9.77;;;1.75;;
53207;SDS011;39093;52.788;6.940;2023-01-19T07:59:30;18.80;;;3.08;;
53207;SDS011;39093;52.788;6.940;2023-01-19T08:01:57;12.27;;;1.92;;
53207;SDS011;39093;52.788;6.940;2023-01-19T08:04:25;11.45;;;1.65;;
53207;SDS011;39093;52.788;6.940;2023-01-19T08:06:53;12.50;;;1.60;;
53207;SDS011;39093;52.788;6.940;2023-01-19T08:09:21;13.57;;;3.22;;
53207;SDS011;39093;52.788;6.940;2023-01-19T08:11:49;13.38;;;2.55;;
53207;SDS011;39093;52.788;6.940;2023-01-19T08:14:16;20.65;;;2.13;;
53207;SDS011;39093;52.788;6.940;2023-01-19T08:16:43;19.77;;;3.55;;
53207;SDS011;39093;52.788;6.940;2023-01-19T08:19:10;11.00;;;1.88;;
53207;SDS011;39093;52.788;6.940;2023-01-19T08:21:37;11.82;;;1.83;;
53207;SDS011;39093;52.788;6.940;2023-01-19T08:24:04;21.27;;;2.33;;
53207;SDS011;39093;52.788;6.940;2023-01-19T08:26:32;16.13;;;3.20;;
53207;SDS011;39093;52.788;6.940;2023-01-19T08:29:02;17.08;;;1.92;;
53207;SDS011;39093;52.788;6.940;2023-01-19T08:31:31;19.45;;;1.92;;
53207;SDS011;39093;52.788;6.940;2023-01-19T08:33:58;17.55;;;2.58;;
53207;SDS011;39093;52.788;6.940;2023-01-19T08:36:25;11.55;;;2.30;;
53207;SDS011;39093;52.788;6.940;2023-01-19T08:38:52;16.17;;;1.80;;
53207;SDS011;39093;52.788;6.940;2023-01-19T08:41:19;13.38;;;2.67;;
53207;SDS011;39093;52.788;6.940;2023-01-19T08:43:47;17.13;;;1.85;;
53207;SDS011;39093;52.788;6.940;2023-01-19T08:46:15;14.45;;;1.70;;
53207;SDS011;39093;52.788;6.940;2023-01-19T08:48:43;17.85;;;3.17;;
53207;SDS011;39093;52.788;6.940;2023-01-19T08:51:16;14.32;;;2.47;;
53207;SDS011;39093;52.788;6.940;2023-01-19T08:53:43;14.98;;;2.15;;
53207;SDS011;39093;52.788;6.940;2023-01-19T08:56:10;9.85;;;1.98;;
53207;SDS011;39093;52.788;6.940;2023-01-19T08:58:38;20.25;;;2.80;;
53207;SDS011;39093;52.788;6.940;2023-01-19T09:01:06;18.35;;;2.65;;
53207;SDS011;39093;52.788;6.940;2023-01-19T09:03:34;13.57;;;2.78;;
53207;SDS011;39093;52.788;6.940;2023-01-19T09:06:05;19.23;;;2.58;;
53207;SDS011;39093;52.788;6.940;2023-01-19T09:08:32;19.40;;;2.58;;
53207;SDS011;39093;52.788;6.940;2023-01-19T09:10:59;25.67;;;3.70;;
53207;SDS011;39093;52.788;6.940;2023-01-19T09:13:27;24.77;;;2.63;;
53207;SDS011;39093;52.788;6.940;2023-01-19T09:15:53;19.73;;;2.20;;
53207;SDS011;39093;52.788;6.940;2023-01-19T09:18:21;22.45;;;2.55;;
53207;SDS011;39093;52.788;6.940;2023-01-19T09:20:48;19.63;;;2.83;;
53207;SDS011;39093;52.788;6.940;2023-01-19T09:23:18;21.98;;;2.42;;
53207;SDS011;39093;52.788;6.940;2023-01-19T09:25:46;25.40;;;3.00;;
53207;SDS011;39093;52.788;6.940;2023-01-19T09:28:14;21.33;;;4.03;;
53207;SDS011;39093;52.788;6.940;2023-01-19T09:30:43;24.13;;;3.55;;
53207;SDS011;39093;52.788;6.940;2023-01-19T09:33:11;20.30;;;2.88;;
53207;SDS011;39093;52.788;6.940;2023-01-19T09:35:40;23.23;;;2.80;;
53207;SDS011;39093;52.788;6.940;2023-01-19T09:38:08;22.30;;;4.57;;
53207;SDS011;39093;52.788;6.940;2023-01-19T09:40:40;28.25;;;2.83;;
53207;SDS011;39093;52.788;6.940;2023-01-19T09:43:20;22.38;;;3.47;;
53207;SDS011;39093;52.788;6.940;2023-01-19T09:49:16;24.58;;;3.83;;
53207;SDS011;39093;52.788;6.940;2023-01-19T09:51:47;18.10;;;3.50;;
53207;SDS011;39093;52.788;6.940;2023-01-19T09:57:01;15.48;;;2.08;;
53207;SDS011;39093;52.788;6.940;2023-01-19T09:59:28;16.58;;;2.50;;
53207;SDS011;39093;52.788;6.940;2023-01-19T10:05:04;16.67;;;2.20;;
53207;SDS011;39093;52.788;6.940;2023-01-19T10:07:52;15.88;;;3.65;;
53207;SDS011;39093;52.788;6.940;2023-01-19T10:10:25;29.15;;;3.05;;
53207;SDS011;39093;52.788;6.940;2023-01-19T10:13:07;15.93;;;2.03;;
53207;SDS011;39093;52.788;6.940;2023-01-19T10:18:47;21.05;;;3.47;;
53207;SDS011;39093;52.788;6.940;2023-01-19T10:21:26;18.58;;;2.30;;
53207;SDS011;39093;52.788;6.940;2023-01-19T10:24:06;18.38;;;2.95;;
53207;SDS011;39093;52.788;6.940;2023-01-19T10:26:42;17.52;;;2.70;;
53207;SDS011;39093;52.788;6.940;2023-01-19T10:31:41;16.50;;;1.88;;
53207;SDS011;39093;52.788;6.940;2023-01-19T10:34:14;25.70;;;2.53;;
53207;SDS011;39093;52.788;6.940;2023-01-19T10:36:48;10.00;;;1.67;;
53207;SDS011;39093;52.788;6.940;2023-01-19T10:39:20;17.48;;;2.90;;
53207;SDS011;39093;52.788;6.940;2023-01-19T10:41:51;12.98;;;2.42;;
53207;SDS011;39093;52.788;6.940;2023-01-19T10:44:23;15.90;;;2.65;;
53207;SDS011;39093;52.788;6.940;2023-01-19T10:46:51;13.93;;;1.60;;
53207;SDS011;39093;52.788;6.940;2023-01-19T10:49:28;15.60;;;3.10;;
53207;SDS011;39093;52.788;6.940;2023-01-19T10:51:58;20.60;;;2.17;;
53207;SDS011;39093;52.788;6.940;2023-01-19T10:54:26;15.15;;;2.08;;
53207;SDS011;39093;52.788;6.940;2023-01-19T10:57:06;22.75;;;2.17;;
53207;SDS011;39093;52.788;6.940;2023-01-19T10:59:36;10.82;;;1.63;;
53207;SDS011;39093;52.788;6.940;2023-01-19T11:04:39;13.10;;;2.25;;
53207;SDS011;39093;52.788;6.940;2023-01-19T11:07:12;19.30;;;2.92;;
53207;SDS011;39093;52.788;6.940;2023-01-19T11:09:48;16.73;;;2.17;;
53207;SDS011;39093;52.788;6.940;2023-01-19T11:12:38;17.58;;;2.22;;
53207;SDS011;39093;52.788;6.940;2023-01-19T11:17:51;11.30;;;1.70;;
53207;SDS011;39093;52.788;6.940;2023-01-19T11:20:26;11.52;;;2.08;;
53207;SDS011;39093;52.788;6.940;2023-01-19T11:23:06;18.52;;;2.95;;
53207;SDS011;39093;52.788;6.940;2023-01-19T11:25:39;16.30;;;3.05;;
53207;SDS011;39093;52.788;6.940;2023-01-19T11:28:17;18.48;;;2.67;;
53207;SDS011;39093;52.788;6.940;2023-01-19T11:30:55;15.25;;;3.65;;
53207;SDS011;39093;52.788;6.940;2023-01-19T11:33:32;11.52;;;2.10;;
53207;SDS011;39093;52.788;6.940;2023-01-19T11:36:03;14.73;;;2.25;;
53207;SDS011;39093;52.788;6.940;2023-01-19T11:38:53;11.98;;;2.17;;
53207;SDS011;39093;52.788;6.940;2023-01-19T11:43:57;18.38;;;2.33;;
53207;SDS011;39093;52.788;6.940;2023-01-19T11:46:34;19.05;;;3.08;;
53207;SDS011;39093;52.788;6.940;2023-01-19T11:52:04;14.55;;;2.47;;
53207;SDS011;39093;52.788;6.940;2023-01-19T11:54:54;10.50;;;1.45;;
53207;SDS011;39093;52.788;6.940;2023-01-19T11:57:46;12.98;;;2.08;;
53207;SDS011;39093;52.788;6.940;2023-01-19T12:02:48;12.63;;;2.70;;
53207;SDS011;39093;52.788;6.940;2023-01-19T12:05:20;5.77;;;2.00;;
53207;SDS011;39093;52.788;6.940;2023-01-19T12:07:59;23.17;;;3.25;;
53207;SDS011;39093;52.788;6.940;2023-01-19T12:10:33;11.80;;;2.00;;
53207;SDS011;39093;52.788;6.940;2023-01-19T12:13:10;13.85;;;1.50;;
53207;SDS011;39093;52.788;6.940;2023-01-19T12:15:50;9.90;;;2.55;;
53207;SDS011;39093;52.788;6.940;2023-01-19T12:18:24;13.45;;;1.23;;
53207;SDS011;39093;52.788;6.940;2023-01-19T12:20:55;9.02;;;1.13;;
53207;SDS011;39093;52.788;6.940;2023-01-19T12:26:27;7.32;;;1.30;;
53207;SDS011;39093;52.788;6.940;2023-01-19T12:29:10;11.45;;;2.33;;
53207;SDS011;39093;52.788;6.940;2023-01-19T12:31:40;9.15;;;1.13;;
53207;SDS011;39093;52.788;6.940;2023-01-19T12:37:00;10.18;;;1.40;;
53207;SDS011;39093;52.788;6.940;2023-01-19T12:39:31;19.25;;;1.48;;
53207;SDS011;39093;52.788;6.940;2023-01-19T12:42:04;4.88;;;1.35;;
53207;SDS011;39093;52.788;6.940;2023-01-19T12:44:32;12.27;;;1.48;;
53207;SDS011;39093;52.788;6.940;2023-01-19T12:47:15;15.50;;;2.35;;
53207;SDS011;39093;52.788;6.940;2023-01-19T12:54:57;10.85;;;1.27;;
53207;SDS011;39093;52.788;6.940;2023-01-19T12:57:48;10.18;;;1.10;;
53207;SDS011;39093;52.788;6.940;2023-01-19T13:02:48;6.00;;;1.38;;
53207;SDS011;39093;52.788;6.940;2023-01-19T13:13:32;9.25;;;1.42;;
53207;SDS011;39093;52.788;6.940;2023-01-19T13:21:29;12.38;;;2.45;;
53207;SDS011;39093;52.788;6.940;2023-01-19T13:24:10;6.97;;;1.40;;
53207;SDS011;39093;52.788;6.940;2023-01-19T13:27:00;10.07;;;1.33;;
53207;SDS011;39093;52.788;6.940;2023-01-19T13:29:29;11.70;;;1.90;;
53207;SDS011;39093;52.788;6.940;2023-01-19T13:32:04;10.15;;;2.05;;
53207;SDS011;39093;52.788;6.940;2023-01-19T13:34:39;9.48;;;1.17;;
53207;SDS011;39093;52.788;6.940;2023-01-19T13:37:22;12.13;;;2.42;;
53207;SDS011;39093;52.788;6.940;2023-01-19T13:40:02;5.60;;;1.23;;
53207;SDS011;39093;52.788;6.940;2023-01-19T13:42:32;16.98;;;2.40;;
53207;SDS011;39093;52.788;6.940;2023-01-19T13:45:23;8.85;;;1.45;;
53207;SDS011;39093;52.788;6.940;2023-01-19T13:47:55;8.40;;;1.15;;
53207;SDS011;39093;52.788;6.940;2023-01-19T13:50:28;9.27;;;1.80;;
53207;SDS011;39093;52.788;6.940;2023-01-19T13:52:57;9.93;;;1.75;;
53207;SDS011;39093;52.788;6.940;2023-01-19T13:55:25;7.90;;;1.00;;
53207;SDS011;39093;52.788;6.940;2023-01-19T13:57:53;8.02;;;1.40;;
53207;SDS011;39093;52.788;6.940;2023-01-19T14:00:22;6.07;;;1.83;;
53207;SDS011;39093;52.788;6.940;2023-01-19T14:05:25;8.25;;;1.20;;
53207;SDS011;39093;52.788;6.940;2023-01-19T14:10:57;7.53;;;1.23;;
53207;SDS011;39093;52.788;6.940;2023-01-19T14:13:28;6.95;;;1.20;;
53207;SDS011;39093;52.788;6.940;2023-01-19T14:15:59;11.60;;;1.05;;
53207;SDS011;39093;52.788;6.940;2023-01-19T14:18:40;6.05;;;1.52;;
53207;SDS011;39093;52.788;6.940;2023-01-19T14:21:08;6.63;;;1.70;;
53207;SDS011;39093;52.788;6.940;2023-01-19T14:29:31;9.32;;;1.52;;
53207;SDS011;39093;52.788;6.940;2023-01-19T14:32:05;33.50;;;3.50;;
53207;SDS011;39093;52.788;6.940;2023-01-19T14:34:39;6.47;;;1.40;;
53207;SDS011;39093;52.788;6.940;2023-01-19T14:37:13;6.03;;;1.38;;
53207;SDS011;39093;52.788;6.940;2023-01-19T14:42:31;6.10;;;1.10;;
53207;SDS011;39093;52.788;6.940;2023-01-19T14:45:02;5.22;;;1.08;;
53207;SDS011;39093;52.788;6.940;2023-01-19T14:47:37;8.95;;;1.05;;
53207;SDS011;39093;52.788;6.940;2023-01-19T14:50:17;10.50;;;1.10;;
53207;SDS011;39093;52.788;6.940;2023-01-19T14:52:54;8.00;;;1.15;;
53207;SDS011;39093;52.788;6.940;2023-01-19T14:55:31;4.82;;;0.80;;
53207;SDS011;39093;52.788;6.940;2023-01-19T14:58:20;7.25;;;1.52;;
53207;SDS011;39093;52.788;6.940;2023-01-19T15:00:49;3.17;;;1.15;;
53207;SDS011;39093;52.788;6.940;2023-01-19T15:03:21;10.65;;;1.17;;
53207;SDS011;39093;52.788;6.940;2023-01-19T15:06:14;7.88;;;0.90;;
53207;SDS011;39093;52.788;6.940;2023-01-19T15:08:44;7.95;;;1.02;;
53207;SDS011;39093;52.788;6.940;2023-01-19T15:11:11;8.68;;;1.48;;
53207;SDS011;39093;52.788;6.940;2023-01-19T15:13:47;11.38;;;1.58;;
53207;SDS011;39093;52.788;6.940;2023-01-19T15:16:14;7.70;;;1.05;;
53207;SDS011;39093;52.788;6.940;2023-01-19T15:18:42;8.93;;;2.47;;
53207;SDS011;39093;52.788;6.940;2023-01-19T15:21:11;12.23;;;1.48;;
53207;SDS011;39093;52.788;6.940;2023-01-19T15:23:40;9.55;;;1.10;;
53207;SDS011;39093;52.788;6.940;2023-01-19T15:26:08;6.55;;;1.38;;
53207;SDS011;39093;52.788;6.940;2023-01-19T15:28:40;3.20;;;0.93;;
53207;SDS011;39093;52.788;6.940;2023-01-19T15:31:09;7.40;;;1.60;;
53207;SDS011;39093;52.788;6.940;2023-01-19T15:33:41;6.82;;;1.50;;
53207;SDS011;39093;52.788;6.940;2023-01-19T15:36:15;5.25;;;1.35;;
53207;SDS011;39093;52.788;6.940;2023-01-19T15:38:44;9.32;;;1.30;;
53207;SDS011;39093;52.788;6.940;2023-01-19T15:41:20;6.78;;;1.13;;
53207;SDS011;39093;52.788;6.940;2023-01-19T15:43:52;9.55;;;1.40;;
53207;SDS011;39093;52.788;6.940;2023-01-19T15:46:19;16.48;;;1.52;;
53207;SDS011;39093;52.788;6.940;2023-01-19T15:48:48;11.75;;;1.50;;
53207;SDS011;39093;52.788;6.940;2023-01-19T15:51:16;3.70;;;1.23;;
53207;SDS011;39093;52.788;6.940;2023-01-19T15:53:46;10.05;;;1.58;;
53207;SDS011;39093;52.788;6.940;2023-01-19T15:56:14;7.47;;;1.48;;
53207;SDS011;39093;52.788;6.940;2023-01-19T15:59:00;7.20;;;1.25;;
53207;SDS011;39093;52.788;6.940;2023-01-19T16:01:27;9.75;;;1.45;;
53207;SDS011;39093;52.788;6.940;2023-01-19T16:04:00;5.03;;;1.00;;
53207;SDS011;39093;52.788;6.940;2023-01-19T16:06:29;7.10;;;1.55;;
53207;SDS011;39093;52.788;6.940;2023-01-19T16:08:57;6.20;;;1.55;;
53207;SDS011;39093;52.788;6.940;2023-01-19T16:11:27;8.57;;;1.80;;
53207;SDS011;39093;52.788;6.940;2023-01-19T16:13:56;8.32;;;1.83;;
53207;SDS011;39093;52.788;6.940;2023-01-19T16:16:23;8.95;;;1.25;;
53207;SDS011;39093;52.788;6.940;2023-01-19T16:18:51;11.80;;;1.65;;
53207;SDS011;39093;52.788;6.940;2023-01-19T16:21:18;4.25;;;1.30;;